sensor_id;sensor_type;location;lat;lon;timestamp;pressure;altitude;pressure_sealevel;temperature;humidity
32033;BME280;31720;52.638;9.216;2023-02-03T00:00:13;101695.84;;;7.07;100.00
32033;BME280;31720;52.638;9.216;2023-02-03T00:03:14;101694.19;;;7.04;100.00
32033;BME280;31720;52.638;9.216;2023-02-03T00:06:15;101689.03;;;7.01;100.00
32033;BME280;31720;52.638;9.216;2023-02-03T00:09:17;101695.97;;;7.02;100.00
32033;BME280;31720;52.638;9.216;2023-02-03T00:12:20;101693.19;;;7.08;100.00
32033;BME280;31720;52.638;9.216;2023-02-03T00:15:21;101692.22;;;7.12;100.00
32033;BME280;31720;52.638;9.216;2023-02-03T00:18:22;101698.25;;;7.18;100.00
32033;BME280;31720;52.638;9.216;2023-02-03T00:21:24;101703.41;;;7.19;100.00
32033;BME280;31720;52.638;9.216;2023-02-03T00:24:25;101691.31;;;7.15;100.00
32033;BME280;31720;52.638;9.216;2023-02-03T00:27:28;101697.41;;;7.16;100.00
32033;BME280;31720;52.638;9.216;2023-02-03T00:30:29;101689.63;;;7.12;100.00
32033;BME280;31720;52.638;9.216;2023-02-03T00:33:31;101691.25;;;7.18;100.00
32033;BME280;31720;52.638;9.216;2023-02-03T00:36:32;101698.34;;;7.13;100.00
32033;BME280;31720;52.638;9.216;2023-02-03T00:39:35;101699.94;;;7.19;100.00
32033;BME280;31720;52.638;9.216;2023-02-03T00:42:37;101695.63;;;7.18;100.00
32033;BME280;31720;52.638;9.216;2023-02-03T00:45:39;101694.63;;;7.22;100.00
32033;BME280;31720;52.638;9.216;2023-02-03T00:48:40;101702.34;;;7.26;100.00
32033;BME280;31720;52.638;9.216;2023-02-03T00:51:41;101680.53;;;7.29;100.00
32033;BME280;31720;52.638;9.216;2023-02-03T00:54:43;101679.78;;;7.24;100.00
32033;BME280;31720;52.638;9.216;2023-02-03T00:57:45;101688.25;;;7.33;100.00
32033;BME280;31720;52.638;9.216;2023-02-03T01:00:47;101694.44;;;7.29;100.00
32033;BME280;31720;52.638;9.216;2023-02-03T01:03:48;101703.88;;;7.35;100.00
32033;BME280;31720;52.638;9.216;2023-02-03T01:06:50;101703.94;;;7.33;100.00
32033;BME280;31720;52.638;9.216;2023-02-03T01:09:55;101696.78;;;7.40;100.00
32033;BME280;31720;52.638;9.216;2023-02-03T01:12:57;101694.28;;;7.35;100.00
32033;BME280;31720;52.638;9.216;2023-02-03T01:15:59;101689.84;;;7.39;100.00
32033;BME280;31720;52.638;9.216;2023-02-03T01:19:00;101688.09;;;7.40;100.00
32033;BME280;31720;52.638;9.216;2023-02-03T01:22:02;101680.22;;;7.41;100.00
32033;BME280;31720;52.638;9.216;2023-02-03T01:25:03;101682.97;;;7.35;100.00
32033;BME280;31720;52.638;9.216;2023-02-03T01:28:06;101683.72;;;7.40;100.00
32033;BME280;31720;52.638;9.216;2023-02-03T01:31:09;101679.38;;;7.39;100.00
32033;BME280;31720;52.638;9.216;2023-02-03T01:34:13;101679.16;;;7.48;100.00
32033;BME280;31720;52.638;9.216;2023-02-03T01:37:15;101665.22;;;7.48;100.00
32033;BME280;31720;52.638;9.216;2023-02-03T01:40:17;101649.69;;;7.42;100.00
32033;BME280;31720;52.638;9.216;2023-02-03T01:43:30;101643.56;;;7.43;100.00
32033;BME280;31720;52.638;9.216;2023-02-03T01:46:34;101641.91;;;7.38;100.00
32033;BME280;31720;52.638;9.216;2023-02-03T01:49:37;101631.53;;;7.35;100.00
32033;BME280;31720;52.638;9.216;2023-02-03T01:52:43;101615.09;;;7.30;100.00
32033;BME280;31720;52.638;9.216;2023-02-03T01:55:47;101620.22;;;7.35;100.00
32033;BME280;31720;52.638;9.216;2023-02-03T01:58:51;101605.38;;;7.37;100.00
32033;BME280;31720;52.638;9.216;2023-02-03T02:01:52;101603.59;;;7.37;100.00
32033;BME280;31720;52.638;9.216;2023-02-03T02:04:59;101614.75;;;7.44;100.00
32033;BME280;31720;52.638;9.216;2023-02-03T02:08:03;101625.09;;;7.49;100.00
32033;BME280;31720;52.638;9.216;2023-02-03T02:11:05;101610.22;;;7.51;100.00
32033;BME280;31720;52.638;9.216;2023-02-03T02:14:09;101586.88;;;7.43;100.00
32033;BME280;31720;52.638;9.216;2023-02-03T02:17:22;101581.47;;;7.49;100.00
32033;BME280;31720;52.638;9.216;2023-02-03T02:20:48;101592.91;;;7.47;100.00
32033;BME280;31720;52.638;9.216;2023-02-03T02:31:49;101593.44;;;7.59;100.00
32033;BME280;31720;52.638;9.216;2023-02-03T02:35:00;101593.63;;;7.52;100.00
32033;BME280;31720;52.638;9.216;2023-02-03T02:38:09;101586.59;;;7.54;100.00
32033;BME280;31720;52.638;9.216;2023-02-03T02:41:19;101578.53;;;7.61;100.00
32033;BME280;31720;52.638;9.216;2023-02-03T02:44:25;101570.69;;;7.61;100.00
32033;BME280;31720;52.638;9.216;2023-02-03T02:47:30;101581.94;;;7.65;100.00
32033;BME280;31720;52.638;9.216;2023-02-03T02:50:35;101585.47;;;7.62;100.00
32033;BME280;31720;52.638;9.216;2023-02-03T02:53:41;101590.81;;;7.59;100.00
32033;BME280;31720;52.638;9.216;2023-02-03T02:56:47;101599.47;;;7.61;100.00
32033;BME280;31720;52.638;9.216;2023-02-03T02:59:49;101588.88;;;7.66;100.00
32033;BME280;31720;52.638;9.216;2023-02-03T03:02:52;101583.50;;;7.71;100.00
32033;BME280;31720;52.638;9.216;2023-02-03T03:05:55;101587.81;;;7.73;100.00
32033;BME280;31720;52.638;9.216;2023-02-03T03:09:01;101575.38;;;7.81;100.00
32033;BME280;31720;52.638;9.216;2023-02-03T03:12:07;101565.84;;;7.79;100.00
32033;BME280;31720;52.638;9.216;2023-02-03T03:15:13;101541.53;;;7.75;100.00
32033;BME280;31720;52.638;9.216;2023-02-03T03:18:20;101552.75;;;7.79;100.00
32033;BME280;31720;52.638;9.216;2023-02-03T03:21:27;101537.00;;;7.82;100.00
32033;BME280;31720;52.638;9.216;2023-02-03T03:24:33;101522.28;;;7.78;100.00
32033;BME280;31720;52.638;9.216;2023-02-03T03:31:35;101540.47;;;7.81;100.00
32033;BME280;31720;52.638;9.216;2023-02-03T03:34:38;101534.38;;;7.82;100.00
32033;BME280;31720;52.638;9.216;2023-02-03T03:37:42;101545.56;;;7.85;100.00
32033;BME280;31720;52.638;9.216;2023-02-03T03:40:49;101540.13;;;7.93;100.00
32033;BME280;31720;52.638;9.216;2023-02-03T03:43:55;101533.38;;;7.86;100.00
32033;BME280;31720;52.638;9.216;2023-02-03T03:47:03;101518.63;;;7.83;100.00
32033;BME280;31720;52.638;9.216;2023-02-03T03:50:10;101541.22;;;7.86;100.00
32033;BME280;31720;52.638;9.216;2023-02-03T03:53:15;101510.63;;;7.88;100.00
32033;BME280;31720;52.638;9.216;2023-02-03T03:56:23;101517.63;;;7.87;100.00
32033;BME280;31720;52.638;9.216;2023-02-03T03:59:31;101504.59;;;7.86;100.00
32033;BME280;31720;52.638;9.216;2023-02-03T04:02:38;101506.94;;;7.95;100.00
32033;BME280;31720;52.638;9.216;2023-02-03T04:05:41;101509.72;;;7.89;100.00
32033;BME280;31720;52.638;9.216;2023-02-03T04:08:42;101508.88;;;7.88;100.00
32033;BME280;31720;52.638;9.216;2023-02-03T04:11:43;101509.63;;;7.92;100.00
32033;BME280;31720;52.638;9.216;2023-02-03T04:15:05;101509.56;;;7.94;100.00
32033;BME280;31720;52.638;9.216;2023-02-03T04:18:06;101500.66;;;8.01;100.00
32033;BME280;31720;52.638;9.216;2023-02-03T04:21:09;101526.84;;;7.99;100.00
32033;BME280;31720;52.638;9.216;2023-02-03T04:24:10;101505.69;;;8.07;100.00
32033;BME280;31720;52.638;9.216;2023-02-03T04:27:12;101516.22;;;8.05;100.00
32033;BME280;31720;52.638;9.216;2023-02-03T04:30:13;101504.19;;;8.00;100.00
32033;BME280;31720;52.638;9.216;2023-02-03T04:33:17;101503.22;;;8.02;100.00
32033;BME280;31720;52.638;9.216;2023-02-03T04:36:20;101514.59;;;8.01;100.00
32033;BME280;31720;52.638;9.216;2023-02-03T04:39:21;101521.63;;;7.99;100.00
32033;BME280;31720;52.638;9.216;2023-02-03T04:42:23;101515.25;;;8.08;100.00
32033;BME280;31720;52.638;9.216;2023-02-03T04:45:24;101511.19;;;7.98;100.00
32033;BME280;31720;52.638;9.216;2023-02-03T04:48:26;101506.50;;;8.09;100.00
32033;BME280;31720;52.638;9.216;2023-02-03T04:51:29;101511.06;;;8.02;100.00
32033;BME280;31720;52.638;9.216;2023-02-03T04:54:30;101490.06;;;8.04;100.00
32033;BME280;31720;52.638;9.216;2023-02-03T04:57:31;101487.44;;;8.04;100.00
32033;BME280;31720;52.638;9.216;2023-02-03T05:00:33;101501.41;;;8.04;100.00
32033;BME280;31720;52.638;9.216;2023-02-03T05:03:35;101474.56;;;7.98;100.00
32033;BME280;31720;52.638;9.216;2023-02-03T05:06:38;101470.88;;;8.03;100.00
32033;BME280;31720;52.638;9.216;2023-02-03T05:09:39;101470.00;;;8.04;100.00
32033;BME280;31720;52.638;9.216;2023-02-03T05:12:40;101481.63;;;7.96;100.00
32033;BME280;31720;52.638;9.216;2023-02-03T05:15:43;101468.66;;;7.91;100.00
32033;BME280;31720;52.638;9.216;2023-02-03T05:18:44;101448.03;;;7.82;100.00
32033;BME280;31720;52.638;9.216;2023-02-03T05:21:47;101443.78;;;7.78;100.00
32033;BME280;31720;52.638;9.216;2023-02-03T05:24:48;101438.72;;;7.72;100.00
32033;BME280;31720;52.638;9.216;2023-02-03T05:27:49;101457.94;;;7.71;100.00
32033;BME280;31720;52.638;9.216;2023-02-03T05:30:51;101449.16;;;7.73;100.00
32033;BME280;31720;52.638;9.216;2023-02-03T05:33:52;101441.31;;;7.73;100.00
32033;BME280;31720;52.638;9.216;2023-02-03T05:36:55;101450.22;;;7.68;100.00
32033;BME280;31720;52.638;9.216;2023-02-03T05:39:56;101426.75;;;7.65;100.00
32033;BME280;31720;52.638;9.216;2023-02-03T05:43:18;101443.22;;;7.67;100.00
32033;BME280;31720;52.638;9.216;2023-02-03T05:46:18;101454.81;;;7.59;100.00
32033;BME280;31720;52.638;9.216;2023-02-03T05:49:20;101455.69;;;7.58;100.00
32033;BME280;31720;52.638;9.216;2023-02-03T05:52:23;101478.09;;;7.67;100.00
32033;BME280;31720;52.638;9.216;2023-02-03T05:55:25;101452.97;;;7.61;100.00
32033;BME280;31720;52.638;9.216;2023-02-03T05:58:26;101472.84;;;7.69;100.00
32033;BME280;31720;52.638;9.216;2023-02-03T06:01:28;101454.47;;;7.70;100.00
32033;BME280;31720;52.638;9.216;2023-02-03T06:04:29;101436.50;;;7.59;100.00
32033;BME280;31720;52.638;9.216;2023-02-03T06:07:32;101455.78;;;7.55;100.00
32033;BME280;31720;52.638;9.216;2023-02-03T06:10:33;101446.13;;;7.57;100.00
32033;BME280;31720;52.638;9.216;2023-02-03T06:13:35;101456.84;;;7.48;100.00
32033;BME280;31720;52.638;9.216;2023-02-03T06:16:36;101455.22;;;7.44;100.00
32033;BME280;31720;52.638;9.216;2023-02-03T06:19:37;101442.28;;;7.40;100.00
32033;BME280;31720;52.638;9.216;2023-02-03T06:22:40;101451.25;;;7.31;100.00
32033;BME280;31720;52.638;9.216;2023-02-03T06:25:41;101441.84;;;7.25;100.00
32033;BME280;31720;52.638;9.216;2023-02-03T06:28:43;101446.06;;;7.29;100.00
32033;BME280;31720;52.638;9.216;2023-02-03T06:31:44;101439.94;;;7.30;100.00
32033;BME280;31720;52.638;9.216;2023-02-03T06:34:45;101435.81;;;7.22;100.00
32033;BME280;31720;52.638;9.216;2023-02-03T06:37:48;101424.44;;;7.24;100.00
32033;BME280;31720;52.638;9.216;2023-02-03T06:40:50;101414.06;;;7.21;100.00
32033;BME280;31720;52.638;9.216;2023-02-03T06:43:51;101427.09;;;7.23;100.00
32033;BME280;31720;52.638;9.216;2023-02-03T06:46:52;101421.09;;;7.19;100.00
32033;BME280;31720;52.638;9.216;2023-02-03T06:49:55;101424.56;;;7.20;100.00
32033;BME280;31720;52.638;9.216;2023-02-03T06:52:58;101414.16;;;7.18;100.00
32033;BME280;31720;52.638;9.216;2023-02-03T06:55:59;101434.16;;;7.19;100.00
32033;BME280;31720;52.638;9.216;2023-02-03T06:59:01;101421.97;;;7.20;100.00
32033;BME280;31720;52.638;9.216;2023-02-03T07:02:02;101427.19;;;7.20;100.00
32033;BME280;31720;52.638;9.216;2023-02-03T07:05:04;101428.81;;;7.24;100.00
32033;BME280;31720;52.638;9.216;2023-02-03T07:08:07;101420.13;;;7.22;100.00
32033;BME280;31720;52.638;9.216;2023-02-03T07:11:09;101429.75;;;7.21;100.00
32033;BME280;31720;52.638;9.216;2023-02-03T07:14:10;101410.59;;;7.21;100.00
32033;BME280;31720;52.638;9.216;2023-02-03T07:17:11;101412.41;;;7.19;100.00
32033;BME280;31720;52.638;9.216;2023-02-03T07:20:13;101389.53;;;7.27;100.00
32033;BME280;31720;52.638;9.216;2023-02-03T07:23:16;101366.16;;;7.21;100.00
32033;BME280;31720;52.638;9.216;2023-02-03T07:26:17;101367.56;;;7.32;100.00
32033;BME280;31720;52.638;9.216;2023-02-03T07:29:22;101357.97;;;7.33;100.00
32033;BME280;31720;52.638;9.216;2023-02-03T07:32:23;101376.03;;;7.41;100.00
32033;BME280;31720;52.638;9.216;2023-02-03T07:35:24;101369.03;;;7.41;100.00
32033;BME280;31720;52.638;9.216;2023-02-03T07:38:27;101380.16;;;7.48;100.00
32033;BME280;31720;52.638;9.216;2023-02-03T07:41:29;101361.91;;;7.46;100.00
32033;BME280;31720;52.638;9.216;2023-02-03T07:44:30;101377.50;;;7.49;100.00
32033;BME280;31720;52.638;9.216;2023-02-03T07:47:32;101397.19;;;7.61;100.00
32033;BME280;31720;52.638;9.216;2023-02-03T07:50:33;101377.94;;;7.63;100.00
32033;BME280;31720;52.638;9.216;2023-02-03T07:53:36;101371.66;;;7.69;100.00
32033;BME280;31720;52.638;9.216;2023-02-03T07:56:37;101363.81;;;7.69;100.00
32033;BME280;31720;52.638;9.216;2023-02-03T07:59:39;101365.16;;;7.82;100.00
32033;BME280;31720;52.638;9.216;2023-02-03T08:02:40;101386.88;;;7.84;100.00
32033;BME280;31720;52.638;9.216;2023-02-03T08:05:41;101370.09;;;7.92;100.00
32033;BME280;31720;52.638;9.216;2023-02-03T08:08:44;101372.50;;;7.98;100.00
32033;BME280;31720;52.638;9.216;2023-02-03T08:11:45;101353.25;;;7.99;100.00
32033;BME280;31720;52.638;9.216;2023-02-03T08:14:47;101368.78;;;8.05;100.00
32033;BME280;31720;52.638;9.216;2023-02-03T08:17:49;101366.72;;;8.14;100.00
32033;BME280;31720;52.638;9.216;2023-02-03T08:20:50;101374.50;;;8.16;100.00
32033;BME280;31720;52.638;9.216;2023-02-03T08:23:53;101380.88;;;8.09;100.00
32033;BME280;31720;52.638;9.216;2023-02-03T08:26:55;101389.13;;;8.23;100.00
32033;BME280;31720;52.638;9.216;2023-02-03T08:29:56;101382.09;;;8.24;100.00
32033;BME280;31720;52.638;9.216;2023-02-03T08:32:57;101388.28;;;8.21;100.00
32033;BME280;31720;52.638;9.216;2023-02-03T08:35:59;101389.34;;;8.16;100.00
32033;BME280;31720;52.638;9.216;2023-02-03T08:39:03;101390.38;;;8.11;100.00
32033;BME280;31720;52.638;9.216;2023-02-03T08:42:05;101396.34;;;8.15;100.00
32033;BME280;31720;52.638;9.216;2023-02-03T08:45:07;101381.28;;;8.22;100.00
32033;BME280;31720;52.638;9.216;2023-02-03T08:48:09;101382.59;;;8.36;100.00
32033;BME280;31720;52.638;9.216;2023-02-03T08:51:11;101397.44;;;8.34;100.00
32033;BME280;31720;52.638;9.216;2023-02-03T08:54:14;101401.78;;;8.35;100.00
32033;BME280;31720;52.638;9.216;2023-02-03T08:57:16;101385.09;;;8.39;100.00
32033;BME280;31720;52.638;9.216;2023-02-03T09:00:18;101385.06;;;8.41;100.00
32033;BME280;31720;52.638;9.216;2023-02-03T09:03:19;101392.00;;;8.42;100.00
32033;BME280;31720;52.638;9.216;2023-02-03T09:06:21;101442.41;;;8.49;100.00
32033;BME280;31720;52.638;9.216;2023-02-03T09:09:24;101424.75;;;8.54;100.00
32033;BME280;31720;52.638;9.216;2023-02-03T09:12:26;101415.66;;;8.39;100.00
32033;BME280;31720;52.638;9.216;2023-02-03T09:15:27;101406.88;;;8.40;100.00
32033;BME280;31720;52.638;9.216;2023-02-03T09:18:28;101413.38;;;8.28;100.00
32033;BME280;31720;52.638;9.216;2023-02-03T09:21:30;101404.50;;;8.32;100.00
32033;BME280;31720;52.638;9.216;2023-02-03T09:24:32;101418.56;;;8.30;100.00
32033;BME280;31720;52.638;9.216;2023-02-03T09:27:34;101425.78;;;8.22;100.00
32033;BME280;31720;52.638;9.216;2023-02-03T09:30:35;101425.78;;;8.22;100.00
32033;BME280;31720;52.638;9.216;2023-02-03T09:33:37;101417.09;;;8.21;100.00
32033;BME280;31720;52.638;9.216;2023-02-03T09:36:38;101413.75;;;8.18;100.00
32033;BME280;31720;52.638;9.216;2023-02-03T09:39:41;101413.13;;;8.09;100.00
32033;BME280;31720;52.638;9.216;2023-02-03T09:42:54;101421.06;;;8.06;100.00
32033;BME280;31720;52.638;9.216;2023-02-03T09:46:01;101437.97;;;7.96;100.00
32033;BME280;31720;52.638;9.216;2023-02-03T09:49:07;101448.53;;;7.93;100.00
32033;BME280;31720;52.638;9.216;2023-02-03T09:52:13;101444.91;;;7.97;100.00
32033;BME280;31720;52.638;9.216;2023-02-03T09:55:24;101438.91;;;7.94;100.00
32033;BME280;31720;52.638;9.216;2023-02-03T09:58:28;101465.09;;;7.94;100.00
32033;BME280;31720;52.638;9.216;2023-02-03T10:01:38;101442.53;;;7.89;100.00
32033;BME280;31720;52.638;9.216;2023-02-03T10:04:50;101446.06;;;7.88;100.00
32033;BME280;31720;52.638;9.216;2023-02-03T10:08:01;101442.59;;;7.88;100.00
32033;BME280;31720;52.638;9.216;2023-02-03T10:11:14;101452.19;;;7.87;100.00
32033;BME280;31720;52.638;9.216;2023-02-03T10:14:33;101453.13;;;7.85;100.00
32033;BME280;31720;52.638;9.216;2023-02-03T10:17:40;101464.47;;;7.85;100.00
32033;BME280;31720;52.638;9.216;2023-02-03T10:20:46;101460.97;;;7.86;100.00
32033;BME280;31720;52.638;9.216;2023-02-03T10:23:49;101453.81;;;7.92;100.00
32033;BME280;31720;52.638;9.216;2023-02-03T10:26:55;101446.69;;;7.97;100.00
32033;BME280;31720;52.638;9.216;2023-02-03T10:30:01;101458.81;;;7.99;100.00
32033;BME280;31720;52.638;9.216;2023-02-03T10:33:09;101472.78;;;8.00;100.00
32033;BME280;31720;52.638;9.216;2023-02-03T10:36:14;101480.38;;;8.07;100.00
32033;BME280;31720;52.638;9.216;2023-02-03T10:39:24;101471.63;;;8.08;100.00
32033;BME280;31720;52.638;9.216;2023-02-03T10:42:30;101460.03;;;8.16;100.00
32033;BME280;31720;52.638;9.216;2023-02-03T10:45:46;101469.44;;;8.23;100.00
32033;BME280;31720;52.638;9.216;2023-02-03T10:48:47;101486.13;;;8.19;100.00
32033;BME280;31720;52.638;9.216;2023-02-03T10:51:50;101502.47;;;8.27;100.00
32033;BME280;31720;52.638;9.216;2023-02-03T10:54:53;101488.34;;;8.31;100.00
32033;BME280;31720;52.638;9.216;2023-02-03T10:58:06;101499.88;;;8.25;100.00
32033;BME280;31720;52.638;9.216;2023-02-03T11:01:15;101492.63;;;8.33;100.00
32033;BME280;31720;52.638;9.216;2023-02-03T11:04:23;101489.97;;;8.36;100.00
32033;BME280;31720;52.638;9.216;2023-02-03T11:07:26;101495.06;;;8.41;100.00
32033;BME280;31720;52.638;9.216;2023-02-03T11:10:32;101491.31;;;8.48;100.00
32033;BME280;31720;52.638;9.216;2023-02-03T11:13:36;101507.72;;;8.55;100.00
32033;BME280;31720;52.638;9.216;2023-02-03T11:16:38;101505.88;;;8.57;100.00
32033;BME280;31720;52.638;9.216;2023-02-03T11:19:43;101515.41;;;8.59;100.00
32033;BME280;31720;52.638;9.216;2023-02-03T11:22:47;101517.06;;;8.62;100.00
32033;BME280;31720;52.638;9.216;2023-02-03T11:25:48;101518.78;;;8.63;100.00
32033;BME280;31720;52.638;9.216;2023-02-03T11:28:53;101517.91;;;8.62;100.00
32033;BME280;31720;52.638;9.216;2023-02-03T11:31:58;101517.44;;;8.76;100.00
32033;BME280;31720;52.638;9.216;2023-02-03T11:35:03;101518.91;;;8.85;100.00
32033;BME280;31720;52.638;9.216;2023-02-03T11:38:27;101524.16;;;8.85;100.00
32033;BME280;31720;52.638;9.216;2023-02-03T11:41:36;101518.72;;;8.91;100.00
32033;BME280;31720;52.638;9.216;2023-02-03T11:44:38;101537.81;;;8.95;100.00
32033;BME280;31720;52.638;9.216;2023-02-03T11:47:44;101515.81;;;8.99;100.00
32033;BME280;31720;52.638;9.216;2023-02-03T11:50:48;101530.59;;;9.01;100.00
32033;BME280;31720;52.638;9.216;2023-02-03T11:54:05;101534.16;;;8.99;100.00
32033;BME280;31720;52.638;9.216;2023-02-03T11:57:23;101552.53;;;8.99;100.00
32033;BME280;31720;52.638;9.216;2023-02-03T12:00:36;101561.91;;;9.06;100.00
32033;BME280;31720;52.638;9.216;2023-02-03T12:07:27;101541.56;;;9.12;100.00
32033;BME280;31720;52.638;9.216;2023-02-03T12:10:39;101565.28;;;9.09;100.00
32033;BME280;31720;52.638;9.216;2023-02-03T12:14:06;101566.03;;;9.13;100.00
32033;BME280;31720;52.638;9.216;2023-02-03T12:21:03;101587.28;;;9.05;100.00
32033;BME280;31720;52.638;9.216;2023-02-03T12:24:14;101576.94;;;9.01;100.00
32033;BME280;31720;52.638;9.216;2023-02-03T12:27:28;101588.19;;;9.04;100.00
32033;BME280;31720;52.638;9.216;2023-02-03T12:30:38;101583.88;;;9.02;100.00
32033;BME280;31720;52.638;9.216;2023-02-03T12:33:45;101598.91;;;8.97;100.00
32033;BME280;31720;52.638;9.216;2023-02-03T12:36:51;101587.44;;;9.01;100.00
32033;BME280;31720;52.638;9.216;2023-02-03T12:39:57;101587.47;;;8.99;100.00
32033;BME280;31720;52.638;9.216;2023-02-03T12:43:17;101579.81;;;8.93;100.00
32033;BME280;31720;52.638;9.216;2023-02-03T12:46:20;101597.16;;;8.97;99.00
32033;BME280;31720;52.638;9.216;2023-02-03T12:49:33;101590.97;;;9.00;98.48
32033;BME280;31720;52.638;9.216;2023-02-03T12:52:39;101596.00;;;9.06;100.00
32033;BME280;31720;52.638;9.216;2023-02-03T12:55:45;101599.72;;;8.99;94.76
32033;BME280;31720;52.638;9.216;2023-02-03T12:58:53;101595.06;;;9.07;94.25
32033;BME280;31720;52.638;9.216;2023-02-03T13:01:58;101610.72;;;9.10;97.81
32033;BME280;31720;52.638;9.216;2023-02-03T13:05:05;101594.97;;;9.10;94.05
32033;BME280;31720;52.638;9.216;2023-02-03T13:08:17;101602.69;;;9.14;92.11
32033;BME280;31720;52.638;9.216;2023-02-03T13:11:28;101599.22;;;9.14;93.63
32033;BME280;31720;52.638;9.216;2023-02-03T13:14:36;101593.28;;;9.09;92.27
32033;BME280;31720;52.638;9.216;2023-02-03T13:17:44;101604.66;;;9.08;92.42
32033;BME280;31720;52.638;9.216;2023-02-03T13:20:46;101617.28;;;8.97;87.76
32033;BME280;31720;52.638;9.216;2023-02-03T13:23:49;101611.19;;;8.96;90.90
32033;BME280;31720;52.638;9.216;2023-02-03T13:27:00;101626.91;;;8.96;90.43
32033;BME280;31720;52.638;9.216;2023-02-03T13:30:21;101612.13;;;8.94;92.57
32033;BME280;31720;52.638;9.216;2023-02-03T13:33:40;101627.97;;;8.91;90.73
32033;BME280;31720;52.638;9.216;2023-02-03T13:37:16;101620.09;;;8.91;91.00
32033;BME280;31720;52.638;9.216;2023-02-03T13:40:36;101637.41;;;8.95;89.66
32033;BME280;31720;52.638;9.216;2023-02-03T13:43:45;101634.91;;;8.92;89.92
32033;BME280;31720;52.638;9.216;2023-02-03T13:46:48;101629.84;;;8.85;92.85
32033;BME280;31720;52.638;9.216;2023-02-03T13:49:55;101645.56;;;8.85;92.97
32033;BME280;31720;52.638;9.216;2023-02-03T13:53:00;101616.88;;;8.82;92.35
32033;BME280;31720;52.638;9.216;2023-02-03T13:56:05;101629.34;;;8.74;91.55
32033;BME280;31720;52.638;9.216;2023-02-03T13:59:26;101638.75;;;8.81;90.16
32033;BME280;31720;52.638;9.216;2023-02-03T14:02:51;101639.84;;;8.74;90.97
32033;BME280;31720;52.638;9.216;2023-02-03T14:05:54;101634.66;;;8.73;92.61
32033;BME280;31720;52.638;9.216;2023-02-03T14:08:58;101639.06;;;8.71;92.60
32033;BME280;31720;52.638;9.216;2023-02-03T14:15:42;101698.53;;;8.69;90.81
32033;BME280;31720;52.638;9.216;2023-02-03T14:18:45;101682.91;;;8.66;90.79
32033;BME280;31720;52.638;9.216;2023-02-03T14:21:50;101662.78;;;8.66;89.38
32033;BME280;31720;52.638;9.216;2023-02-03T14:24:55;101656.91;;;8.58;89.26
32033;BME280;31720;52.638;9.216;2023-02-03T14:27:58;101659.50;;;8.59;88.38
32033;BME280;31720;52.638;9.216;2023-02-03T14:31:04;101664.19;;;8.50;89.56
32033;BME280;31720;52.638;9.216;2023-02-03T14:34:10;101675.41;;;8.53;90.05
32033;BME280;31720;52.638;9.216;2023-02-03T14:37:17;101681.75;;;8.46;91.07
32033;BME280;31720;52.638;9.216;2023-02-03T14:40:29;101710.50;;;8.48;95.20
32033;BME280;31720;52.638;9.216;2023-02-03T14:43:37;101709.81;;;8.41;95.00
32033;BME280;31720;52.638;9.216;2023-02-03T14:46:55;101697.72;;;8.35;92.72
32033;BME280;31720;52.638;9.216;2023-02-03T14:50:08;101700.47;;;8.31;95.80
32033;BME280;31720;52.638;9.216;2023-02-03T14:53:24;101707.56;;;8.27;96.78
32033;BME280;31720;52.638;9.216;2023-02-03T14:56:43;101712.88;;;8.24;95.79
32033;BME280;31720;52.638;9.216;2023-02-03T15:00:05;101724.41;;;8.17;96.13
32033;BME280;31720;52.638;9.216;2023-02-03T15:03:22;101729.03;;;8.09;96.10
32033;BME280;31720;52.638;9.216;2023-02-03T15:06:36;101748.22;;;8.09;94.02
32033;BME280;31720;52.638;9.216;2023-02-03T15:09:39;101737.00;;;8.04;95.91
32033;BME280;31720;52.638;9.216;2023-02-03T15:12:44;101751.81;;;8.05;95.04
32033;BME280;31720;52.638;9.216;2023-02-03T15:15:47;101750.91;;;8.06;93.96
32033;BME280;31720;52.638;9.216;2023-02-03T15:18:59;101751.06;;;8.00;95.29
32033;BME280;31720;52.638;9.216;2023-02-03T15:22:17;101754.56;;;7.99;96.78
32033;BME280;31720;52.638;9.216;2023-02-03T15:25:21;101754.69;;;7.95;96.16
32033;BME280;31720;52.638;9.216;2023-02-03T15:28:25;101768.56;;;7.98;97.04
32033;BME280;31720;52.638;9.216;2023-02-03T15:31:30;101753.03;;;7.92;99.88
32033;BME280;31720;52.638;9.216;2023-02-03T15:34:36;101757.47;;;7.88;100.00
32033;BME280;31720;52.638;9.216;2023-02-03T15:37:42;101765.63;;;7.78;100.00
32033;BME280;31720;52.638;9.216;2023-02-03T15:40:47;101763.81;;;7.80;100.00
32033;BME280;31720;52.638;9.216;2023-02-03T15:43:51;101779.44;;;7.83;100.00
32033;BME280;31720;52.638;9.216;2023-02-03T15:46:54;101773.38;;;7.81;100.00
32033;BME280;31720;52.638;9.216;2023-02-03T15:50:06;101770.06;;;7.74;100.00
32033;BME280;31720;52.638;9.216;2023-02-03T15:53:13;101794.50;;;7.73;100.00
32033;BME280;31720;52.638;9.216;2023-02-03T15:56:21;101804.88;;;7.76;100.00
32033;BME280;31720;52.638;9.216;2023-02-03T15:59:29;101812.66;;;7.79;100.00
32033;BME280;31720;52.638;9.216;2023-02-03T16:02:34;101791.16;;;7.68;100.00
32033;BME280;31720;52.638;9.216;2023-02-03T16:05:38;101787.75;;;7.65;100.00
32033;BME280;31720;52.638;9.216;2023-02-03T16:08:42;101812.94;;;7.69;100.00
32033;BME280;31720;52.638;9.216;2023-02-03T16:11:47;101799.03;;;7.67;100.00
32033;BME280;31720;52.638;9.216;2023-02-03T16:14:48;101818.34;;;7.61;100.00
32033;BME280;31720;52.638;9.216;2023-02-03T16:17:54;101821.88;;;7.58;100.00
32033;BME280;31720;52.638;9.216;2023-02-03T16:20:57;101820.16;;;7.57;100.00
32033;BME280;31720;52.638;9.216;2023-02-03T16:23:59;101827.31;;;7.49;100.00
32033;BME280;31720;52.638;9.216;2023-02-03T16:27:19;101835.06;;;7.55;100.00
32033;BME280;31720;52.638;9.216;2023-02-03T16:30:23;101828.97;;;7.55;100.00
32033;BME280;31720;52.638;9.216;2023-02-03T16:33:46;101830.69;;;7.56;100.00